createdAt,value
2023-02-16T00:01:35.541Z,16.37
2023-02-16T00:04:09.393Z,16.70
2023-02-16T00:06:36.014Z,15.63
2023-02-16T00:09:02.617Z,16.57
2023-02-16T00:11:52.277Z,15.60
2023-02-16T00:14:22.626Z,16.43
2023-02-16T00:16:49.993Z,15.70
2023-02-16T00:19:26.481Z,17.33
2023-02-16T00:21:55.718Z,17.50
2023-02-16T00:24:23.331Z,16.73
2023-02-16T00:26:50.115Z,16.23
2023-02-16T00:29:25.434Z,18.10
2023-02-16T00:31:53.530Z,16.00
2023-02-16T00:34:36.888Z,17.40
2023-02-16T00:37:06.807Z,17.47
2023-02-16T00:39:33.940Z,17.93
2023-02-16T00:42:04.884Z,16.70
2023-02-16T00:44:39.968Z,17.50
2023-02-16T00:47:20.347Z,17.03
2023-02-16T00:49:52.704Z,17.50
2023-02-16T00:52:38.309Z,17.50
2023-02-16T00:55:08.744Z,17.87
2023-02-16T00:57:39.964Z,19.40
2023-02-16T01:00:12.783Z,19.10
2023-02-16T01:02:39.592Z,16.10
2023-02-16T01:05:06.569Z,19.10
2023-02-16T01:07:51.629Z,17.90
2023-02-16T01:10:43.037Z,20.80
2023-02-16T01:13:11.041Z,22.10
2023-02-16T01:15:38.599Z,22.00
2023-02-16T01:18:06.525Z,22.57
2023-02-16T01:20:36.172Z,22.90
2023-02-16T01:23:03.267Z,23.60
2023-02-16T01:25:30.485Z,20.70
2023-02-16T01:27:57.314Z,22.60
2023-02-16T01:30:26.080Z,22.33
2023-02-16T01:32:53.212Z,24.60
2023-02-16T01:35:21.787Z,23.90
2023-02-16T01:37:49.322Z,24.07
2023-02-16T01:40:34.231Z,21.90
2023-02-16T01:43:30.333Z,26.23
2023-02-16T01:46:19.757Z,21.90
2023-02-16T01:48:46.409Z,24.13
2023-02-16T01:51:25.800Z,25.20
2023-02-16T01:54:21.264Z,25.97
2023-02-16T01:57:19.491Z,22.13
2023-02-16T01:59:48.825Z,22.33
2023-02-16T02:02:21.108Z,25.77
2023-02-16T02:05:11.312Z,24.17
2023-02-16T02:07:44.741Z,25.77
2023-02-16T02:10:39.967Z,23.40
2023-02-16T02:13:17.416Z,24.40
2023-02-16T02:15:44.046Z,23.87
2023-02-16T02:18:10.748Z,24.37
2023-02-16T02:21:09.869Z,24.60
2023-02-16T02:23:57.499Z,23.20
2023-02-16T02:26:48.013Z,25.83
2023-02-16T02:29:36.295Z,21.50
2023-02-16T02:32:24.750Z,23.80
2023-02-16T02:35:21.275Z,24.67
2023-02-16T02:37:59.900Z,24.67
2023-02-16T02:40:54.520Z,25.57
2023-02-16T02:43:36.223Z,23.47
2023-02-16T02:46:12.811Z,23.90
2023-02-16T02:48:39.659Z,24.97
2023-02-16T02:51:28.094Z,24.70
2023-02-16T02:54:38.099Z,24.87
2023-02-16T02:57:39.296Z,23.57
2023-02-16T03:00:41.617Z,22.83
2023-02-16T03:03:31.949Z,24.37
2023-02-16T03:06:16.819Z,22.40
2023-02-16T03:08:47.807Z,26.23
2023-02-16T03:11:40.878Z,25.43
2023-02-16T03:14:14.541Z,23.47
2023-02-16T03:17:12.928Z,24.67
2023-02-16T03:20:01.118Z,22.87
2023-02-16T03:22:47.470Z,23.80
2023-02-16T03:25:33.132Z,23.33
2023-02-16T03:28:21.642Z,21.37
2023-02-16T03:30:51.246Z,22.60
2023-02-16T03:33:18.743Z,22.10
2023-02-16T03:35:45.993Z,24.80
2023-02-16T03:38:13.255Z,21.97
2023-02-16T03:40:41.143Z,23.10
2023-02-16T03:43:08.893Z,24.40
2023-02-16T03:45:39.611Z,22.47
2023-02-16T03:48:06.618Z,22.27
2023-02-16T03:50:33.371Z,23.33
2023-02-16T03:53:09.111Z,22.30
2023-02-16T03:55:37.424Z,22.00
2023-02-16T03:58:05.738Z,20.40
2023-02-16T04:00:33.311Z,21.80
2023-02-16T04:02:59.987Z,20.97
2023-02-16T04:05:26.942Z,20.87
2023-02-16T04:07:53.749Z,23.27
2023-02-16T04:10:20.665Z,22.43
2023-02-16T04:12:47.685Z,22.37
2023-02-16T04:15:17.527Z,22.43
2023-02-16T04:17:44.684Z,21.80
2023-02-16T04:20:14.474Z,24.27
2023-02-16T04:22:41.323Z,21.23
2023-02-16T04:25:08.618Z,22.33
2023-02-16T04:27:36.449Z,22.77
2023-02-16T04:30:04.255Z,21.43
2023-02-16T04:32:31.207Z,23.17
2023-02-16T04:34:57.932Z,21.40
2023-02-16T04:37:24.591Z,21.60
2023-02-16T04:39:51.209Z,20.90
2023-02-16T04:42:17.881Z,21.23
2023-02-16T04:44:44.588Z,21.57
2023-02-16T04:47:11.542Z,22.10
2023-02-16T04:49:38.181Z,21.93
2023-02-16T04:52:05.186Z,20.50
2023-02-16T04:54:32.993Z,22.50
2023-02-16T04:57:00.585Z,21.47
2023-02-16T04:59:27.315Z,22.73
2023-02-16T05:01:54.029Z,20.30
2023-02-16T05:04:20.675Z,22.87
2023-02-16T05:06:47.456Z,21.70
2023-02-16T05:09:14.063Z,22.77
2023-02-16T05:11:59.321Z,22.70
2023-02-16T05:14:45.405Z,20.73
2023-02-16T05:17:20.748Z,21.77
2023-02-16T05:19:50.301Z,21.60
2023-02-16T05:22:17.620Z,20.47
2023-02-16T05:24:45.026Z,23.00
2023-02-16T05:27:17.493Z,22.17
2023-02-16T05:29:44.089Z,22.20
2023-02-16T05:32:11.013Z,21.63
2023-02-16T05:34:38.409Z,21.60
2023-02-16T05:37:05.888Z,22.87
2023-02-16T05:39:32.783Z,19.50
2023-02-16T05:42:00.108Z,20.97
2023-02-16T05:44:26.755Z,21.23
2023-02-16T05:46:53.536Z,22.57
2023-02-16T05:49:20.182Z,21.20
2023-02-16T05:51:47.265Z,22.00
2023-02-16T05:54:17.486Z,22.60
2023-02-16T05:56:46.116Z,21.43
2023-02-16T05:59:13.563Z,20.00
2023-02-16T06:01:40.988Z,20.40
2023-02-16T06:04:10.158Z,22.87
2023-02-16T06:06:38.288Z,21.80
2023-02-16T06:09:06.608Z,22.63
2023-02-16T06:11:36.231Z,20.93
2023-02-16T06:14:12.672Z,22.87
2023-02-16T06:16:41.655Z,23.43
2023-02-16T06:19:09.332Z,23.00
2023-02-16T06:21:36.956Z,22.00
2023-02-16T06:24:03.792Z,20.93
2023-02-16T06:26:30.742Z,23.43
2023-02-16T06:28:57.806Z,23.90
2023-02-16T06:31:25.272Z,25.40
2023-02-16T06:33:53.306Z,24.60
2023-02-16T06:36:20.426Z,25.60
2023-02-16T06:38:47.368Z,24.67
2023-02-16T06:41:30.979Z,24.73
2023-02-16T06:43:59.331Z,24.17
2023-02-16T06:46:26.428Z,25.37
2023-02-16T06:48:53.342Z,22.77
2023-02-16T06:51:20.345Z,23.30
2023-02-16T06:53:47.660Z,27.47
2023-02-16T06:56:14.262Z,27.10
2023-02-16T06:58:40.999Z,27.20
2023-02-16T07:01:07.825Z,27.03
2023-02-16T07:03:35.375Z,25.80
2023-02-16T07:06:02.217Z,25.73
2023-02-16T07:08:29.012Z,24.73
2023-02-16T07:10:55.667Z,26.87
2023-02-16T07:13:22.504Z,23.53
2023-02-16T07:15:49.820Z,24.93
2023-02-16T07:18:16.575Z,26.70
2023-02-16T07:20:43.300Z,24.03
2023-02-16T07:23:09.913Z,25.10
2023-02-16T07:25:37.235Z,25.10
2023-02-16T07:28:04.443Z,20.10
2023-02-16T07:30:31.320Z,27.17
2023-02-16T07:32:58.007Z,25.53
2023-02-16T07:35:24.709Z,22.37
2023-02-16T07:37:51.350Z,25.07
2023-02-16T07:40:18.192Z,28.30
2023-02-16T07:42:44.829Z,25.77
2023-02-16T07:45:11.444Z,28.10
2023-02-16T07:47:37.974Z,26.60
2023-02-16T07:50:05.553Z,23.87
2023-02-16T07:52:32.167Z,25.67
2023-02-16T07:54:59.269Z,27.30
2023-02-16T07:57:27.133Z,26.00
2023-02-16T07:59:54.477Z,28.87
2023-02-16T08:02:24.521Z,28.60
2023-02-16T08:04:54.205Z,26.77
2023-02-16T08:07:21.233Z,27.77
2023-02-16T08:09:47.858Z,26.80
2023-02-16T08:12:15.807Z,29.23
2023-02-16T08:14:42.996Z,26.60
2023-02-16T08:17:10.523Z,28.80
2023-02-16T08:19:37.368Z,29.20
2023-02-16T08:22:04.572Z,24.00
2023-02-16T08:24:31.802Z,26.00
2023-02-16T08:26:58.435Z,24.10
2023-02-16T08:29:25.240Z,26.47
2023-02-16T08:31:53.298Z,27.20
2023-02-16T08:34:20.558Z,25.10
2023-02-16T08:36:51.486Z,26.77
2023-02-16T08:39:20.772Z,27.93
2023-02-16T08:41:49.731Z,26.20
2023-02-16T08:44:17.826Z,26.17
2023-02-16T08:46:46.517Z,25.50
2023-02-16T08:49:16.900Z,27.10
2023-02-16T08:51:46.535Z,28.90
2023-02-16T08:54:19.583Z,25.00
2023-02-16T08:56:48.012Z,27.53
2023-02-16T08:59:15.865Z,26.40
2023-02-16T09:01:42.679Z,25.90
2023-02-16T09:04:09.918Z,26.03
2023-02-16T09:06:38.374Z,26.07
2023-02-16T09:09:05.793Z,25.30
2023-02-16T09:11:32.960Z,26.43
2023-02-16T09:13:59.954Z,24.50
2023-02-16T09:16:28.922Z,27.07
2023-02-16T09:18:57.269Z,24.77
2023-02-16T09:21:25.772Z,26.50
2023-02-16T09:23:55.691Z,24.50
2023-02-16T09:26:24.835Z,26.47
2023-02-16T09:28:53.283Z,24.73
2023-02-16T09:31:27.185Z,25.70
2023-02-16T09:33:57.037Z,27.60
2023-02-16T09:36:24.184Z,27.20
2023-02-16T09:38:51.373Z,25.07
2023-02-16T09:41:54.790Z,26.73
2023-02-16T09:44:46.820Z,25.20
2023-02-16T09:47:29.764Z,23.03
2023-02-16T09:49:58.515Z,25.90
2023-02-16T09:52:37.714Z,25.23
2023-02-16T09:55:24.900Z,15.97
2023-02-16T09:58:12.912Z,25.67
2023-02-16T10:01:07.602Z,26.53
2023-02-16T10:03:52.841Z,25.43
2023-02-16T10:07:03.896Z,25.90
2023-02-16T10:09:32.772Z,27.13
2023-02-16T10:12:07.817Z,24.17
2023-02-16T10:14:58.054Z,27.03
2023-02-16T10:17:37.658Z,25.30
2023-02-16T10:20:16.121Z,25.87
2023-02-16T10:23:24.439Z,26.83
2023-02-16T10:25:58.076Z,26.40
2023-02-16T10:28:58.775Z,28.93
2023-02-16T10:32:04.850Z,23.93
2023-02-16T10:34:37.773Z,30.03
2023-02-16T10:37:29.536Z,28.57
2023-02-16T10:40:14.079Z,28.03
2023-02-16T10:43:05.031Z,27.00
2023-02-16T10:45:42.009Z,27.23
2023-02-16T10:48:10.631Z,24.30
2023-02-16T10:50:43.033Z,28.37
2023-02-16T10:53:24.363Z,29.40
2023-02-16T10:55:51.029Z,29.23
2023-02-16T10:58:24.154Z,27.70
2023-02-16T11:01:21.930Z,29.43
2023-02-16T11:03:53.165Z,27.23
2023-02-16T11:06:22.981Z,24.47
2023-02-16T11:08:57.170Z,26.93
2023-02-16T11:11:29.301Z,26.00
2023-02-16T11:14:23.770Z,26.73
2023-02-16T11:17:05.880Z,26.60
2023-02-16T11:19:33.405Z,26.10
2023-02-16T11:22:00.590Z,28.30
2023-02-16T11:24:33.925Z,27.23
2023-02-16T11:27:05.493Z,27.87
2023-02-16T11:29:32.718Z,25.17
2023-02-16T11:32:04.771Z,27.10
2023-02-16T11:34:32.988Z,15.73
2023-02-16T11:37:26.110Z,27.57
2023-02-16T11:39:57.595Z,27.13
2023-02-16T11:42:31.368Z,31.80
2023-02-16T11:45:00.119Z,26.40
2023-02-16T11:47:36.105Z,29.73
2023-02-16T11:50:26.930Z,26.77
2023-02-16T11:53:14.782Z,28.43
2023-02-16T11:55:46.979Z,28.60
2023-02-16T11:58:18.756Z,27.73
2023-02-16T12:01:08.515Z,28.60
2023-02-16T12:04:03.024Z,29.70
2023-02-16T12:06:40.533Z,28.03
2023-02-16T12:09:21.733Z,29.23
2023-02-16T12:12:09.199Z,30.37
2023-02-16T12:14:59.420Z,32.00
2023-02-16T12:17:44.775Z,30.57
2023-02-16T12:20:33.019Z,28.77
2023-02-16T12:23:23.062Z,28.70
2023-02-16T12:26:19.374Z,29.50
2023-02-16T12:29:05.227Z,31.43
2023-02-16T12:31:50.810Z,33.10
2023-02-16T12:34:33.380Z,29.40
2023-02-16T12:37:35.473Z,33.27
2023-02-16T12:40:31.112Z,32.80
2023-02-16T12:43:28.046Z,33.83
2023-02-16T12:45:58.210Z,29.93
2023-02-16T12:48:31.161Z,33.27
2023-02-16T12:51:02.470Z,33.20
2023-02-16T12:53:49.083Z,35.07
2023-02-16T12:56:32.021Z,34.17
2023-02-16T12:59:29.784Z,33.17
2023-02-16T13:01:59.730Z,32.63
2023-02-16T13:04:49.666Z,33.33
2023-02-16T13:07:48.670Z,32.20
2023-02-16T13:10:38.125Z,35.07
2023-02-16T13:13:19.400Z,35.50
2023-02-16T13:15:58.337Z,36.77
2023-02-16T13:18:34.092Z,34.03
2023-02-16T13:21:39.692Z,33.70
2023-02-16T13:24:37.397Z,35.77
2023-02-16T13:27:32.628Z,32.47
2023-02-16T13:30:04.253Z,35.83
2023-02-16T13:32:43.733Z,36.50
2023-02-16T13:35:22.705Z,32.73
2023-02-16T13:38:13.927Z,37.10
2023-02-16T13:41:09.321Z,31.90
2023-02-16T13:43:54.229Z,33.80
2023-02-16T13:46:34.206Z,34.77
2023-02-16T13:49:02.336Z,33.13
2023-02-16T13:51:44.163Z,36.47
2023-02-16T13:54:30.619Z,31.33
2023-02-16T13:56:57.645Z,35.73
2023-02-16T13:59:24.197Z,34.93
2023-02-16T14:01:54.219Z,33.33
2023-02-16T14:04:24.623Z,29.37
2023-02-16T14:07:03.520Z,33.00
2023-02-16T14:09:44.456Z,33.73
2023-02-16T14:12:28.883Z,34.80
2023-02-16T14:14:58.935Z,31.23
2023-02-16T14:17:29.269Z,30.33
2023-02-16T14:20:06.871Z,36.67
2023-02-16T14:22:37.127Z,33.90
2023-02-16T14:25:27.391Z,34.17
2023-02-16T14:27:58.086Z,34.00
2023-02-16T14:30:31.139Z,33.70
2023-02-16T14:33:27.045Z,35.10
2023-02-16T14:35:59.608Z,33.27
2023-02-16T14:38:30.534Z,33.37
2023-02-16T14:40:59.711Z,36.83
2023-02-16T14:43:31.180Z,31.83
2023-02-16T14:46:22.851Z,33.37
2023-02-16T14:49:14.889Z,31.60
2023-02-16T14:52:00.187Z,34.47
2023-02-16T14:54:58.152Z,32.83
2023-02-16T14:57:36.495Z,33.77
2023-02-16T15:00:26.737Z,33.97
2023-02-16T15:03:01.843Z,33.47
2023-02-16T15:05:35.532Z,28.77
2023-02-16T15:08:16.267Z,30.87
2023-02-16T15:10:46.454Z,31.40
2023-02-16T15:13:26.813Z,35.13
2023-02-16T15:15:56.752Z,34.87
2023-02-16T15:18:28.313Z,32.83
2023-02-16T15:20:58.408Z,32.17
2023-02-16T15:23:27.665Z,32.40
2023-02-16T15:26:04.613Z,32.53
2023-02-16T15:28:37.302Z,29.93
2023-02-16T15:31:07.622Z,35.47
2023-02-16T15:33:41.798Z,33.30
2023-02-16T15:36:14.174Z,34.20
2023-02-16T15:38:53.934Z,33.57
2023-02-16T15:41:32.461Z,36.70
2023-02-16T15:44:02.300Z,33.93
2023-02-16T15:46:30.553Z,35.10
2023-02-16T15:48:57.446Z,34.40
2023-02-16T15:51:27.774Z,33.50
2023-02-16T15:54:03.425Z,34.63
2023-02-16T15:56:36.066Z,34.40
2023-02-16T15:59:35.820Z,34.40
2023-02-16T16:02:17.378Z,34.53
2023-02-16T16:04:59.286Z,33.13
2023-02-16T16:07:44.349Z,35.23
2023-02-16T16:10:25.042Z,32.20
2023-02-16T16:12:55.852Z,37.57
2023-02-16T16:15:25.046Z,33.83
2023-02-16T16:17:53.210Z,33.93
2023-02-16T16:20:29.051Z,37.90
2023-02-16T16:23:25.837Z,39.60
2023-02-16T16:25:53.214Z,35.27
2023-02-16T16:28:28.577Z,39.07
2023-02-16T16:31:07.964Z,37.80
2023-02-16T16:33:56.771Z,38.20
2023-02-16T16:36:45.534Z,38.87
2023-02-16T16:39:20.586Z,37.10
2023-02-16T16:42:08.796Z,37.97
2023-02-16T16:44:41.960Z,37.43
2023-02-16T16:47:37.618Z,37.43
2023-02-16T16:50:28.517Z,36.20
2023-02-16T16:52:55.409Z,37.80
2023-02-16T16:55:27.104Z,34.60
2023-02-16T16:58:03.579Z,38.57
2023-02-16T17:00:34.912Z,32.70
2023-02-16T17:03:03.117Z,32.10
2023-02-16T17:05:29.814Z,30.90
2023-02-16T17:07:56.576Z,32.63
2023-02-16T17:10:24.420Z,30.17
2023-02-16T17:12:54.732Z,33.67
2023-02-16T17:15:27.382Z,33.37
2023-02-16T17:17:54.288Z,28.30
2023-02-16T17:20:21.248Z,29.23
2023-02-16T17:22:47.961Z,29.93
2023-02-16T17:25:14.818Z,31.40
2023-02-16T17:27:41.431Z,31.00
2023-02-16T17:30:08.517Z,31.63
2023-02-16T17:32:35.140Z,31.13
2023-02-16T17:35:01.770Z,32.00
2023-02-16T17:37:28.387Z,32.30
2023-02-16T17:39:54.977Z,32.67
2023-02-16T17:42:21.636Z,31.63
2023-02-16T17:44:48.234Z,31.93
2023-02-16T17:47:16.776Z,29.93
2023-02-16T17:49:43.558Z,31.40
2023-02-16T17:52:13.224Z,29.90
2023-02-16T17:54:39.898Z,28.90
2023-02-16T17:57:06.700Z,29.60
2023-02-16T17:59:34.309Z,30.50
2023-02-16T18:02:00.982Z,32.13
2023-02-16T18:04:27.602Z,31.37
2023-02-16T18:06:54.205Z,29.70
2023-02-16T18:09:24.299Z,31.70
2023-02-16T18:11:51.382Z,30.83
2023-02-16T18:14:18.066Z,29.10
2023-02-16T18:16:44.843Z,29.40
2023-02-16T18:19:14.842Z,29.87
2023-02-16T18:21:41.576Z,29.63
2023-02-16T18:24:08.413Z,28.47
2023-02-16T18:26:35.016Z,28.20
2023-02-16T18:29:01.654Z,27.83
2023-02-16T18:31:28.374Z,28.00
2023-02-16T18:33:55.023Z,28.47
2023-02-16T18:36:21.651Z,29.37
2023-02-16T18:38:48.300Z,29.00
2023-02-16T18:41:14.916Z,28.27
2023-02-16T18:43:41.540Z,31.23
2023-02-16T18:46:09.715Z,28.63
2023-02-16T18:48:36.855Z,27.93
2023-02-16T18:51:05.860Z,29.00
2023-02-16T18:53:32.519Z,28.20
2023-02-16T18:55:59.393Z,28.40
2023-02-16T18:58:26.095Z,29.67
2023-02-16T19:00:52.746Z,28.83
2023-02-16T19:03:19.360Z,28.60
2023-02-16T19:05:46.177Z,27.90
2023-02-16T19:08:13.062Z,29.60
2023-02-16T19:10:39.746Z,28.80
2023-02-16T19:13:07.283Z,30.03
2023-02-16T19:15:37.334Z,29.63
2023-02-16T19:18:04.427Z,30.33
2023-02-16T19:20:31.230Z,29.73
2023-02-16T19:22:57.895Z,28.70
2023-02-16T19:25:24.560Z,30.80
2023-02-16T19:27:51.200Z,28.40
2023-02-16T19:30:20.639Z,30.17
2023-02-16T19:32:47.383Z,31.97
2023-02-16T19:35:14.055Z,33.27
2023-02-16T19:37:40.713Z,31.50
2023-02-16T19:40:09.719Z,33.27
2023-02-16T19:42:37.209Z,33.53
2023-02-16T19:45:04.356Z,33.30
2023-02-16T19:47:31.078Z,34.67
2023-02-16T19:49:57.829Z,37.43
2023-02-16T19:52:24.750Z,34.17
2023-02-16T19:54:51.553Z,37.10
2023-02-16T19:57:18.163Z,38.53
2023-02-16T19:59:44.793Z,35.90
2023-02-16T20:02:14.613Z,31.57
2023-02-16T20:04:42.461Z,34.93
2023-02-16T20:07:09.869Z,33.17
2023-02-16T20:09:37.329Z,36.80
2023-02-16T20:12:05.145Z,33.87
2023-02-16T20:14:31.833Z,36.10
2023-02-16T20:16:58.462Z,33.20
2023-02-16T20:19:25.146Z,35.50
2023-02-16T20:21:51.772Z,32.67
2023-02-16T20:24:18.490Z,36.57
2023-02-16T20:26:46.441Z,33.73
2023-02-16T20:29:16.260Z,32.63
2023-02-16T20:31:49.148Z,33.40
2023-02-16T20:34:15.971Z,34.30
2023-02-16T20:36:42.861Z,35.87
2023-02-16T20:39:09.696Z,35.33
2023-02-16T20:41:36.887Z,36.33
2023-02-16T20:44:04.524Z,35.60
2023-02-16T20:46:31.304Z,38.10
2023-02-16T20:48:57.994Z,36.80
2023-02-16T20:51:24.733Z,35.30
2023-02-16T20:53:51.495Z,38.70
2023-02-16T20:56:21.662Z,37.73
2023-02-16T20:58:49.957Z,38.63
2023-02-16T21:01:24.773Z,38.27
2023-02-16T21:03:53.591Z,36.80
2023-02-16T21:06:20.638Z,34.33
2023-02-16T21:08:47.912Z,37.93
2023-02-16T21:11:16.469Z,36.00
2023-02-16T21:13:43.845Z,36.67
2023-02-16T21:16:11.305Z,35.10
2023-02-16T21:18:40.371Z,36.43
2023-02-16T21:21:07.850Z,36.63
2023-02-16T21:23:34.484Z,34.07
2023-02-16T21:26:05.679Z,36.40
2023-02-16T21:28:32.688Z,34.50
2023-02-16T21:31:05.278Z,36.17
2023-02-16T21:33:32.228Z,32.63
2023-02-16T21:36:11.960Z,32.60
2023-02-16T21:38:40.220Z,32.37
2023-02-16T21:41:26.402Z,34.63
2023-02-16T21:43:54.448Z,26.30
2023-02-16T21:46:21.572Z,29.20
2023-02-16T21:48:49.616Z,31.87
2023-02-16T21:51:19.224Z,34.50
2023-02-16T21:53:46.381Z,32.80
2023-02-16T21:56:35.508Z,31.47
2023-02-16T21:59:03.578Z,32.47
2023-02-16T22:01:32.714Z,30.10
2023-02-16T22:04:00.781Z,29.40
2023-02-16T22:06:32.239Z,31.20
2023-02-16T22:08:59.877Z,30.47
2023-02-16T22:11:26.985Z,29.10
2023-02-16T22:13:56.060Z,32.07
2023-02-16T22:16:23.539Z,32.90
2023-02-16T22:18:50.275Z,30.43
2023-02-16T22:21:17.304Z,30.60
2023-02-16T22:23:43.964Z,29.97
2023-02-16T22:26:20.196Z,30.70
2023-02-16T22:28:46.901Z,30.90
2023-02-16T22:31:13.526Z,30.43
2023-02-16T22:33:40.448Z,31.80
2023-02-16T22:36:09.965Z,34.87
2023-02-16T22:38:36.603Z,33.83
2023-02-16T22:41:07.596Z,25.40
2023-02-16T22:43:34.468Z,31.90
2023-02-16T22:46:09.037Z,35.33
2023-02-16T22:48:36.326Z,33.30
2023-02-16T22:51:05.022Z,30.00
2023-02-16T22:53:31.685Z,32.87
2023-02-16T22:55:58.469Z,33.33
2023-02-16T22:58:25.106Z,33.83
2023-02-16T23:00:52.160Z,31.60
2023-02-16T23:03:18.812Z,31.40
2023-02-16T23:05:45.570Z,31.77
2023-02-16T23:08:12.322Z,31.70
2023-02-16T23:10:40.539Z,33.20
2023-02-16T23:13:09.190Z,32.23
2023-02-16T23:15:36.188Z,33.73
2023-02-16T23:18:02.790Z,32.73
2023-02-16T23:20:29.685Z,32.43
2023-02-16T23:22:56.346Z,36.00
2023-02-16T23:25:35.264Z,38.07
2023-02-16T23:28:04.247Z,35.10
2023-02-16T23:30:31.539Z,38.27
2023-02-16T23:32:58.258Z,35.13
2023-02-16T23:35:24.872Z,37.00
2023-02-16T23:37:51.511Z,34.80
2023-02-16T23:40:18.184Z,36.50
2023-02-16T23:42:44.801Z,35.87
2023-02-16T23:45:11.430Z,38.00
2023-02-16T23:47:38.082Z,38.00
2023-02-16T23:50:05.233Z,38.30
2023-02-16T23:52:31.827Z,42.60
2023-02-16T23:54:58.452Z,37.70
2023-02-16T23:57:25.023Z,40.57
2023-02-16T23:59:51.604Z,41.47
